Time;durP1;ratioP1;P1;durP2;ratioP2;P2;SDS_P1;SDS_P2;PMS_P1;PMS_P2;Temp;Humidity;BMP_temperature;BMP_pressure;BME280_temperature;BME280_humidity;BME280_pressure;Samples;Min_cycle;Max_cycle;Signal;HPM_P1;HPM_P2
2024/01/04 00:01:51;;;;;;;3.13;0.60;;;6.80;99.90;;;;;;5060549;28;20045;-80
2024/01/04 00:04:16;;;;;;;5.32;0.85;;;6.70;99.90;;;;;;5068012;28;20072;-80
2024/01/04 00:06:44;;;;;;;3.38;0.60;;;6.70;99.90;;;;;;5065308;28;20049;-80
2024/01/04 00:09:10;;;;;;;7.93;1.25;;;6.70;99.90;;;;;;5064816;28;20048;-80
2024/01/04 00:11:36;;;;;;;6.97;0.70;;;6.70;99.90;;;;;;5069786;28;20468;-80
2024/01/04 00:14:05;;;;;;;1.52;0.50;;;6.70;99.90;;;;;;5058177;28;20111;-80
2024/01/04 00:16:33;;;;;;;4.43;0.90;;;6.70;99.90;;;;;;5070716;28;20552;-80
2024/01/04 00:18:58;;;;;;;3.40;0.63;;;6.70;99.90;;;;;;5067591;28;20719;-80
2024/01/04 00:21:24;;;;;;;4.95;0.55;;;6.70;99.90;;;;;;5059175;28;20129;-80
2024/01/04 00:23:50;;;;;;;5.75;0.73;;;6.70;99.90;;;;;;5063133;28;20049;-80
2024/01/04 00:26:16;;;;;;;5.38;0.70;;;6.70;99.90;;;;;;5063146;28;20462;-80
2024/01/04 00:28:41;;;;;;;5.25;0.68;;;6.70;99.90;;;;;;5061246;28;20053;-80
2024/01/04 00:31:07;;;;;;;4.43;0.68;;;6.80;99.90;;;;;;5063263;28;20049;-80
2024/01/04 00:33:33;;;;;;;5.57;0.93;;;6.70;99.90;;;;;;5065598;28;20040;-80
2024/01/04 00:35:59;;;;;;;1.58;0.63;;;6.70;99.90;;;;;;5063284;28;20052;-80
2024/01/04 00:38:25;;;;;;;7.07;0.93;;;6.70;99.90;;;;;;5061130;28;20424;-80
2024/01/04 00:40:51;;;;;;;5.78;0.88;;;6.70;99.90;;;;;;5064409;28;20044;-80
2024/01/04 00:43:17;;;;;;;1.92;0.60;;;6.70;99.90;;;;;;5062162;28;20048;-80
2024/01/04 00:45:42;;;;;;;3.50;0.93;;;6.70;99.90;;;;;;5063231;28;20520;-80
2024/01/04 00:48:08;;;;;;;2.50;0.50;;;6.70;99.90;;;;;;5061959;28;20033;-80
2024/01/04 00:50:34;;;;;;;3.47;0.70;;;6.60;99.90;;;;;;5062439;28;20419;-80
2024/01/04 00:53:01;;;;;;;5.00;0.50;;;6.70;99.90;;;;;;5063048;28;20056;-80
2024/01/04 00:55:27;;;;;;;3.10;0.80;;;6.70;99.90;;;;;;5061420;28;20044;-80
2024/01/04 00:57:52;;;;;;;4.32;0.60;;;6.60;99.90;;;;;;5061369;28;20435;-80
2024/01/04 01:00:18;;;;;;;2.53;0.60;;;6.70;99.90;;;;;;5062412;28;20036;-80
2024/01/04 01:02:45;;;;;;;2.58;0.50;;;6.60;99.90;;;;;;5063493;28;20430;-80
2024/01/04 01:05:11;;;;;;;3.38;0.73;;;6.60;99.90;;;;;;5061572;28;20045;-80
2024/01/04 01:07:36;;;;;;;2.92;0.45;;;6.60;99.90;;;;;;5065353;28;20098;-80
2024/01/04 01:10:03;;;;;;;5.03;0.60;;;6.60;99.90;;;;;;5061475;28;20392;-80
2024/01/04 01:12:29;;;;;;;2.50;0.50;;;6.60;99.90;;;;;;5039459;28;20488;-80
2024/01/04 01:14:54;;;;;;;2.45;0.73;;;6.70;99.90;;;;;;5060274;28;20045;-80
2024/01/04 01:17:20;;;;;;;4.43;0.73;;;6.60;99.90;;;;;;5061003;28;20080;-80
2024/01/04 01:19:46;;;;;;;2.20;0.52;;;6.60;99.90;;;;;;5044100;28;20108;-80
2024/01/04 01:22:11;;;;;;;3.72;0.65;;;6.80;99.90;;;;;;5061721;28;20036;-80
2024/01/04 01:24:37;;;;;;;5.30;0.50;;;6.60;99.90;;;;;;5062135;28;20048;-80
2024/01/04 01:27:03;;;;;;;2.20;0.52;;;6.60;99.90;;;;;;5057334;28;20041;-80
2024/01/04 01:29:28;;;;;;;4.68;0.60;;;6.50;99.90;;;;;;5065287;28;20140;-80
2024/01/04 01:31:54;;;;;;;5.90;1.08;;;6.60;99.90;;;;;;5063289;28;20048;-80
2024/01/04 01:34:20;;;;;;;4.50;0.50;;;6.50;99.90;;;;;;5062504;28;20366;-80
2024/01/04 01:36:46;;;;;;;4.70;0.70;;;6.50;99.90;;;;;;5059271;28;20072;-80
2024/01/04 01:39:11;;;;;;;7.22;1.20;;;6.50;99.90;;;;;;5061978;28;20048;-80
2024/01/04 01:41:37;;;;;;;4.57;0.50;;;6.70;99.90;;;;;;5061825;28;20048;-80
2024/01/04 01:44:03;;;;;;;2.92;0.50;;;6.40;99.90;;;;;;5054106;28;20043;-81
2024/01/04 01:46:29;;;;;;;4.35;0.60;;;6.40;99.90;;;;;;5062197;28;20044;-80
2024/01/04 01:48:55;;;;;;;3.20;0.68;;;6.30;99.90;;;;;;5060113;28;20435;-80
2024/01/04 01:51:20;;;;;;;6.13;0.60;;;6.40;99.90;;;;;;5061029;28;20106;-79
2024/01/04 01:53:46;;;;;;;4.32;0.70;;;6.50;99.90;;;;;;5062728;28;20044;-80
2024/01/04 01:56:12;;;;;;;5.97;0.60;;;6.30;99.90;;;;;;5062690;28;20040;-80
2024/01/04 01:58:38;;;;;;;3.50;0.60;;;6.40;99.90;;;;;;5061731;28;20072;-80
2024/01/04 02:01:03;;;;;;;3.47;0.43;;;6.30;99.90;;;;;;5060251;28;20703;-80
2024/01/04 02:03:29;;;;;;;2.85;0.40;;;6.30;99.90;;;;;;5062964;28;20055;-80
2024/01/04 02:05:55;;;;;;;5.00;0.70;;;6.60;99.90;;;;;;5061592;28;20039;-80
2024/01/04 02:08:21;;;;;;;2.75;0.50;;;6.30;99.90;;;;;;5059867;28;20389;-80
2024/01/04 02:10:47;;;;;;;4.43;0.93;;;6.30;99.90;;;;;;5066695;28;20407;-80
2024/01/04 02:13:12;;;;;;;4.82;1.35;;;6.30;99.90;;;;;;5063030;28;20052;-81
2024/01/04 02:15:38;;;;;;;3.17;0.60;;;6.30;99.90;;;;;;5061255;28;20047;-80
2024/01/04 02:18:04;;;;;;;4.40;0.50;;;6.30;99.90;;;;;;5059832;28;20051;-80
2024/01/04 02:20:30;;;;;;;3.72;0.60;;;6.30;99.90;;;;;;5057147;28;20429;-80
2024/01/04 02:22:55;;;;;;;3.40;0.52;;;6.40;99.90;;;;;;5056048;28;20511;-80
2024/01/04 02:25:21;;;;;;;3.50;0.50;;;6.30;99.90;;;;;;5060705;28;20392;-80
2024/01/04 02:27:47;;;;;;;4.40;0.50;;;6.30;99.90;;;;;;5060862;28;20491;-80
2024/01/04 02:30:12;;;;;;;3.85;0.50;;;6.30;99.90;;;;;;5059617;28;20033;-80
2024/01/04 02:32:38;;;;;;;4.57;0.50;;;6.30;99.90;;;;;;5059653;28;20700;-80
2024/01/04 02:35:05;;;;;;;5.68;0.57;;;6.20;99.90;;;;;;5061075;28;20060;-80
2024/01/04 02:37:30;;;;;;;2.53;0.45;;;6.20;99.90;;;;;;5061226;28;20080;-80
2024/01/04 02:39:56;;;;;;;7.40;0.80;;;6.20;99.90;;;;;;5064124;28;20068;-80
2024/01/04 02:42:22;;;;;;;2.67;0.55;;;6.10;99.90;;;;;;5062898;28;20053;-80
2024/01/04 02:44:47;;;;;;;4.93;0.88;;;6.10;99.90;;;;;;5063453;28;20045;-80
2024/01/04 02:47:13;;;;;;;3.65;0.60;;;6.10;99.90;;;;;;5063177;28;20089;-80
2024/01/04 02:49:39;;;;;;;3.65;0.50;;;6.10;99.90;;;;;;5065168;28;20029;-81
2024/01/04 02:52:05;;;;;;;8.27;0.85;;;6.10;99.90;;;;;;5058155;28;20053;-80
2024/01/04 02:54:31;;;;;;;2.88;0.40;;;6.00;99.90;;;;;;5055031;28;20452;-80
2024/01/04 02:56:56;;;;;;;2.33;0.45;;;6.00;99.90;;;;;;5054949;28;20051;-80
2024/01/04 02:59:22;;;;;;;5.22;0.82;;;6.00;99.90;;;;;;5055477;28;20045;-80
2024/01/04 03:01:48;;;;;;;3.78;0.60;;;6.00;99.90;;;;;;5054952;28;20084;-80
2024/01/04 03:04:15;;;;;;;5.68;0.82;;;6.00;99.90;;;;;;5054640;28;20053;-80
2024/01/04 03:06:41;;;;;;;4.15;0.50;;;5.90;99.90;;;;;;5054440;28;20574;-80
2024/01/04 03:09:07;;;;;;;4.13;0.52;;;5.90;99.90;;;;;;5054866;28;20044;-80
2024/01/04 03:11:33;;;;;;;2.42;0.40;;;5.80;99.90;;;;;;5054711;28;20207;-80
2024/01/04 03:13:58;;;;;;;3.10;0.40;;;5.90;99.90;;;;;;5054966;28;20135;-80
2024/01/04 03:16:24;;;;;;;2.70;0.50;;;5.80;99.90;;;;;;5054554;28;20138;-80
2024/01/04 03:18:50;;;;;;;5.07;0.50;;;5.80;99.90;;;;;;5054128;28;20045;-80
2024/01/04 03:21:17;;;;;;;1.90;0.40;;;5.80;99.90;;;;;;5054130;28;20420;-79
2024/01/04 03:23:43;;;;;;;3.05;0.50;;;5.80;99.90;;;;;;5054644;28;20052;-80
2024/01/04 03:26:08;;;;;;;4.85;0.73;;;5.80;99.90;;;;;;5054274;28;20132;-80
2024/01/04 03:28:34;;;;;;;2.05;0.32;;;5.70;99.90;;;;;;5054332;28;20055;-80
2024/01/04 03:31:01;;;;;;;3.03;0.30;;;5.70;99.90;;;;;;5054419;28;20049;-80
2024/01/04 03:33:27;;;;;;;2.88;0.60;;;5.70;99.90;;;;;;5055528;28;20047;-80
2024/01/04 03:35:53;;;;;;;0.88;0.30;;;5.80;99.90;;;;;;5054360;28;20131;-80
2024/01/04 03:38:19;;;;;;;0.95;0.28;;;5.70;99.90;;;;;;5054101;28;20048;-80
2024/01/04 03:40:44;;;;;;;2.45;0.50;;;5.70;99.90;;;;;;5054323;28;20098;-79
2024/01/04 03:43:10;;;;;;;2.38;0.40;;;5.60;99.90;;;;;;5054086;28;20388;-79
2024/01/04 03:45:36;;;;;;;2.90;0.50;;;5.60;99.90;;;;;;5054339;28;20041;-80
2024/01/04 03:48:02;;;;;;;2.95;0.40;;;5.60;99.90;;;;;;5054097;28;20037;-80
2024/01/04 03:50:27;;;;;;;2.05;0.30;;;5.60;99.90;;;;;;5054156;28;20565;-80
2024/01/04 03:52:53;;;;;;;3.30;0.47;;;5.60;99.90;;;;;;5053658;28;20113;-80
2024/01/04 03:55:19;;;;;;;2.28;0.50;;;5.60;99.90;;;;;;5053937;28;20052;-79
2024/01/04 03:57:45;;;;;;;2.60;0.45;;;5.60;99.90;;;;;;5054007;28;20124;-79
2024/01/04 04:00:12;;;;;;;3.40;0.50;;;5.50;99.90;;;;;;5054125;28;20556;-80
2024/01/04 04:02:38;;;;;;;1.92;0.40;;;5.50;99.90;;;;;;5054025;28;20135;-80
2024/01/04 04:05:04;;;;;;;3.40;0.40;;;5.50;99.90;;;;;;5053539;28;20080;-80
2024/01/04 04:07:29;;;;;;;2.95;0.43;;;5.50;99.90;;;;;;5060682;28;20044;-80
2024/01/04 04:09:56;;;;;;;2.72;0.40;;;5.50;99.90;;;;;;5070354;28;20123;-79
2024/01/04 04:12:22;;;;;;;2.10;0.50;;;5.50;99.90;;;;;;5064093;28;20044;-79
2024/01/04 04:14:49;;;;;;;4.32;0.60;;;5.40;99.90;;;;;;5064457;28;20056;-80
2024/01/04 04:17:18;;;;;;;3.15;0.52;;;5.40;99.90;;;;;;5073688;28;20377;-79
2024/01/04 04:19:43;;;;;;;2.00;0.40;;;5.40;99.90;;;;;;5073238;28;20128;-80
2024/01/04 04:22:09;;;;;;;1.58;0.60;;;5.40;99.90;;;;;;5072555;28;20131;-80
2024/01/04 04:24:35;;;;;;;3.08;0.50;;;5.40;99.90;;;;;;5072371;28;20094;-79
2024/01/04 04:27:00;;;;;;;1.30;0.50;;;5.40;99.90;;;;;;5072119;28;20409;-79
2024/01/04 04:29:26;;;;;;;5.03;0.85;;;5.40;99.90;;;;;;5071950;28;20052;-79
2024/01/04 04:31:51;;;;;;;3.10;0.38;;;5.40;99.90;;;;;;5072221;28;20041;-80
2024/01/04 04:34:17;;;;;;;4.35;0.68;;;5.30;99.90;;;;;;5072104;28;20046;-80
2024/01/04 04:36:43;;;;;;;4.95;0.73;;;5.30;99.90;;;;;;5072046;28;20382;-79
2024/01/04 04:39:09;;;;;;;4.07;0.60;;;5.30;99.90;;;;;;5072890;28;20105;-80
2024/01/04 04:41:34;;;;;;;3.97;0.32;;;5.40;99.90;;;;;;5073127;28;20056;-79
2024/01/04 04:44:00;;;;;;;3.00;0.60;;;5.20;99.90;;;;;;5056532;28;20068;-79
2024/01/04 04:46:26;;;;;;;2.63;0.50;;;5.20;99.90;;;;;;5073071;28;20458;-79
2024/01/04 04:48:55;;;;;;;4.03;0.50;;;5.20;99.90;;;;;;5072740;28;20481;-80
2024/01/04 04:51:22;;;;;;;2.67;0.60;;;5.20;99.90;;;;;;5073370;28;20488;-80
2024/01/04 04:53:48;;;;;;;5.15;0.35;;;5.30;99.90;;;;;;5073042;28;20056;-80
2024/01/04 04:56:13;;;;;;;3.33;0.60;;;5.30;99.90;;;;;;5072987;28;20428;-79
2024/01/04 04:58:39;;;;;;;2.22;0.40;;;5.20;99.90;;;;;;5072693;28;20049;-80
2024/01/04 05:01:05;;;;;;;1.77;0.50;;;5.30;99.90;;;;;;5072520;28;20049;-80
2024/01/04 05:03:32;;;;;;;4.38;0.40;;;5.20;99.90;;;;;;5072659;28;20048;-79
2024/01/04 05:05:57;;;;;;;4.40;0.52;;;5.20;99.90;;;;;;5072529;28;20127;-80
2024/01/04 05:08:23;;;;;;;1.83;0.50;;;5.30;99.90;;;;;;5072709;28;20137;-79
2024/01/04 05:10:49;;;;;;;3.35;0.60;;;5.20;99.90;;;;;;5072531;28;20040;-79
2024/01/04 05:13:14;;;;;;;3.05;0.50;;;5.30;99.90;;;;;;5073556;28;20048;-80
2024/01/04 05:15:40;;;;;;;3.58;0.70;;;5.30;99.90;;;;;;5072255;28;20047;-80
2024/01/04 05:18:08;;;;;;;4.57;0.63;;;5.30;99.90;;;;;;5072208;28;20388;-79
2024/01/04 05:20:34;;;;;;;3.75;0.60;;;5.30;99.90;;;;;;5072131;28;20525;-79
2024/01/04 05:23:00;;;;;;;4.20;0.60;;;5.20;99.90;;;;;;5072262;28;20052;-79
2024/01/04 05:25:25;;;;;;;2.38;0.50;;;5.20;99.90;;;;;;5072086;28;20048;-79
2024/01/04 05:27:51;;;;;;;3.30;0.40;;;5.20;99.90;;;;;;5071933;28;20052;-79
2024/01/04 05:30:17;;;;;;;3.40;0.47;;;5.30;99.90;;;;;;5072049;28;20113;-79
2024/01/04 05:32:43;;;;;;;4.55;0.50;;;5.20;99.90;;;;;;5071894;28;20052;-80
2024/01/04 05:35:09;;;;;;;3.83;0.57;;;5.20;99.90;;;;;;5072139;28;20494;-79
2024/01/04 05:37:35;;;;;;;3.28;0.70;;;5.20;99.90;;;;;;5071989;28;20102;-80
2024/01/04 05:40:03;;;;;;;2.58;0.50;;;5.10;99.90;;;;;;5072439;28;20037;-80
2024/01/04 05:42:29;;;;;;;2.13;0.40;;;5.20;99.90;;;;;;5071977;28;20105;-80
2024/01/04 05:44:54;;;;;;;3.55;0.55;;;5.10;99.90;;;;;;5071940;28;20044;-79
2024/01/04 05:47:20;;;;;;;0.73;0.30;;;5.10;99.90;;;;;;5071762;28;20051;-79
2024/01/04 05:49:46;;;;;;;4.70;0.52;;;5.10;99.90;;;;;;5071841;28;20048;-79
2024/01/04 05:52:12;;;;;;;5.05;0.65;;;5.10;99.90;;;;;;5071855;28;20503;-80
2024/01/04 05:54:38;;;;;;;1.60;0.50;;;5.10;99.90;;;;;;5071806;28;20385;-80
2024/01/04 05:57:04;;;;;;;1.38;0.35;;;5.10;99.90;;;;;;5072038;28;20084;-79
2024/01/04 05:59:29;;;;;;;3.80;0.68;;;5.00;99.90;;;;;;5071949;28;20504;-80
2024/01/04 06:01:55;;;;;;;6.95;0.57;;;5.00;99.90;;;;;;5072074;28;20131;-79
2024/01/04 06:04:21;;;;;;;3.22;0.50;;;5.00;99.90;;;;;;5071678;28;20054;-79
2024/01/04 06:06:47;;;;;;;32.55;0.95;;;5.00;99.90;;;;;;5071701;28;20133;-79
2024/01/04 06:09:13;;;;;;;2.90;0.50;;;5.00;99.90;;;;;;5071542;28;20052;-79
2024/01/04 06:11:39;;;;;;;7.53;0.90;;;5.00;99.90;;;;;;5071890;28;20043;-80
2024/01/04 06:14:05;;;;;;;2.53;0.45;;;5.00;99.90;;;;;;5071688;28;20443;-78
2024/01/04 06:16:31;;;;;;;3.85;0.65;;;5.00;99.90;;;;;;5071327;28;20048;-77
2024/01/04 06:18:58;;;;;;;3.67;0.50;;;5.00;99.90;;;;;;5071994;28;20087;-77
2024/01/04 06:21:23;;;;;;;4.60;0.70;;;4.90;99.90;;;;;;5071411;28;20056;-77
2024/01/04 06:23:50;;;;;;;2.63;0.50;;;4.90;99.90;;;;;;5071845;28;20144;-78
2024/01/04 06:26:20;;;;;;;2.58;0.50;;;4.90;99.90;;;;;;5071414;28;20492;-77
2024/01/04 06:28:45;;;;;;;2.40;0.85;;;4.90;99.90;;;;;;5072721;28;20127;-78
2024/01/04 06:31:11;;;;;;;3.00;0.80;;;4.90;99.90;;;;;;5071954;28;20123;-77
2024/01/04 06:33:37;;;;;;;2.05;0.47;;;4.90;99.90;;;;;;5071573;28;20127;-77
2024/01/04 06:36:03;;;;;;;2.85;0.50;;;4.90;99.90;;;;;;5071301;28;20102;-77
2024/01/04 06:38:29;;;;;;;2.83;0.60;;;4.80;99.90;;;;;;5071457;28;20107;-78
2024/01/04 06:40:58;;;;;;;2.40;0.57;;;4.80;99.90;;;;;;5071536;28;20415;-77
2024/01/04 06:43:25;;;;;;;4.15;0.50;;;4.80;99.90;;;;;;5071233;28;20053;-77
2024/01/04 06:45:51;;;;;;;6.30;0.60;;;4.80;99.90;;;;;;5071737;28;20048;-77
2024/01/04 06:48:17;;;;;;;3.38;0.50;;;4.80;99.90;;;;;;5071663;28;20040;-77
2024/01/04 06:50:44;;;;;;;6.50;0.57;;;4.70;99.90;;;;;;5071446;28;20488;-78
2024/01/04 06:53:14;;;;;;;2.78;0.50;;;4.70;99.90;;;;;;5071523;28;20099;-77
2024/01/04 06:55:40;;;;;;;4.75;0.70;;;4.70;99.90;;;;;;5071516;28;20045;-77
2024/01/04 06:58:08;;;;;;;3.75;0.75;;;4.70;99.90;;;;;;5071321;28;20052;-78
2024/01/04 07:00:34;;;;;;;3.58;0.55;;;4.70;99.90;;;;;;5071400;28;20154;-78
2024/01/04 07:02:59;;;;;;;1.92;0.40;;;4.70;99.90;;;;;;5071189;28;20064;-78
2024/01/04 07:05:25;;;;;;;3.28;0.43;;;4.70;99.90;;;;;;5070779;28;20059;-79
2024/01/04 07:07:50;;;;;;;2.42;0.50;;;4.60;99.90;;;;;;5071470;28;20045;-78
2024/01/04 07:10:16;;;;;;;3.03;0.50;;;4.70;99.90;;;;;;5071252;28;20040;-78
2024/01/04 07:12:43;;;;;;;3.95;1.20;;;4.60;99.90;;;;;;5071049;28;20052;-78
2024/01/04 07:15:09;;;;;;;1.65;0.60;;;4.60;99.90;;;;;;5071102;28;20056;-79
2024/01/04 07:17:35;;;;;;;1.35;0.45;;;4.60;99.90;;;;;;5070887;28;20540;-78
2024/01/04 07:20:03;;;;;;;2.45;0.60;;;4.60;99.90;;;;;;5071039;28;20087;-78
2024/01/04 07:22:28;;;;;;;4.35;0.55;;;4.50;99.90;;;;;;5072186;28;20131;-78
2024/01/04 07:24:56;;;;;;;1.20;0.40;;;4.60;99.90;;;;;;5074364;28;20519;-78
2024/01/04 07:27:22;;;;;;;2.75;0.50;;;4.50;99.90;;;;;;5074522;28;20048;-78
2024/01/04 07:29:47;;;;;;;3.42;0.50;;;4.50;99.90;;;;;;5074709;28;20052;-80
2024/01/04 07:32:18;;;;;;;3.03;0.50;;;5.30;99.90;;;;;;5074806;28;20037;-79
2024/01/04 07:34:44;;;;;;;1.55;0.50;;;4.40;99.90;;;;;;5074398;28;20123;-79
2024/01/04 07:37:10;;;;;;;2.00;0.50;;;4.40;99.90;;;;;;5074680;28;20052;-78
2024/01/04 07:39:36;;;;;;;1.80;0.47;;;4.40;99.90;;;;;;5074620;28;20563;-78
2024/01/04 07:42:01;;;;;;;4.05;0.60;;;4.40;99.90;;;;;;5074100;28;20052;-78
2024/01/04 07:44:27;;;;;;;5.15;1.00;;;4.30;99.90;;;;;;5074191;28;20815;-78
2024/01/04 07:46:53;;;;;;;4.00;0.73;;;4.30;99.90;;;;;;5074614;28;20086;-78
2024/01/04 07:49:18;;;;;;;2.60;0.73;;;4.30;99.90;;;;;;5074502;28;20381;-78
2024/01/04 07:51:44;;;;;;;3.00;0.60;;;4.30;99.90;;;;;;5074248;28;20137;-78
2024/01/04 07:54:10;;;;;;;2.45;0.70;;;4.30;99.90;;;;;;5074445;28;20045;-78
2024/01/04 07:56:35;;;;;;;2.13;0.75;;;4.30;99.90;;;;;;5074205;28;20036;-78
2024/01/04 07:59:02;;;;;;;1.60;0.57;;;4.30;99.90;;;;;;5074174;28;20468;-78
2024/01/04 08:01:28;;;;;;;5.30;0.60;;;4.30;99.90;;;;;;5073800;28;20535;-79
2024/01/04 08:03:54;;;;;;;1.98;0.63;;;4.20;99.90;;;;;;5073791;28;20131;-78
2024/01/04 08:06:19;;;;;;;3.83;0.50;;;4.20;99.90;;;;;;5057114;28;20033;-78
2024/01/04 08:08:45;;;;;;;3.50;0.80;;;4.20;99.90;;;;;;5074030;28;20041;-78
2024/01/04 08:11:11;;;;;;;4.50;0.93;;;4.20;99.90;;;;;;5073925;28;20060;-78
2024/01/04 08:13:37;;;;;;;3.22;0.75;;;4.20;99.90;;;;;;5073419;28;20044;-78
2024/01/04 08:16:03;;;;;;;2.38;0.80;;;4.20;99.90;;;;;;5073125;28;20631;-78
2024/01/04 08:18:28;;;;;;;2.85;0.95;;;4.20;99.90;;;;;;5073662;28;20044;-79
2024/01/04 08:20:54;;;;;;;3.33;0.80;;;4.20;99.90;;;;;;5073143;28;20060;-78
2024/01/04 08:23:19;;;;;;;3.17;0.77;;;4.10;99.90;;;;;;5073750;28;20056;-79
2024/01/04 08:25:46;;;;;;;1.88;0.73;;;4.10;99.90;;;;;;5073083;28;20146;-78
2024/01/04 08:28:12;;;;;;;3.92;0.85;;;4.10;99.90;;;;;;5073146;28;20404;-78
2024/01/04 08:30:38;;;;;;;3.58;0.73;;;4.10;99.90;;;;;;5073051;28;20052;-79
2024/01/04 08:33:03;;;;;;;3.08;0.70;;;4.10;99.90;;;;;;5063813;28;20461;-79
2024/01/04 08:35:29;;;;;;;4.15;0.80;;;4.10;99.90;;;;;;5060333;28;20040;-79
2024/01/04 08:37:55;;;;;;;5.40;0.88;;;4.10;99.90;;;;;;5063381;28;20404;-79
2024/01/04 08:40:21;;;;;;;2.28;0.68;;;4.00;99.90;;;;;;5060873;28;20045;-78
2024/01/04 08:42:46;;;;;;;3.40;0.77;;;4.10;99.90;;;;;;5062344;28;20037;-79
2024/01/04 08:45:12;;;;;;;3.95;1.08;;;4.10;99.90;;;;;;5062766;28;20784;-79
2024/01/04 08:47:39;;;;;;;5.13;0.90;;;4.10;99.90;;;;;;5063772;28;20499;-79
2024/01/04 08:50:05;;;;;;;4.43;0.93;;;4.10;99.90;;;;;;5063685;28;20045;-80
2024/01/04 08:52:31;;;;;;;4.70;0.90;;;4.10;99.90;;;;;;5054799;28;20519;-80
2024/01/04 08:54:57;;;;;;;4.07;0.80;;;4.10;99.90;;;;;;5062336;28;20116;-77
2024/01/04 08:57:23;;;;;;;7.70;1.38;;;4.00;99.90;;;;;;5058088;28;20048;-78
2024/01/04 08:59:48;;;;;;;4.35;1.10;;;4.00;99.90;;;;;;5059142;28;20048;-80
2024/01/04 09:02:14;;;;;;;5.80;1.80;;;4.10;99.90;;;;;;5063472;28;20094;-80
2024/01/04 09:04:40;;;;;;;4.95;1.80;;;4.10;99.90;;;;;;5066959;28;20377;-79
2024/01/04 09:07:08;;;;;;;3.35;1.20;;;4.10;99.90;;;;;;5071614;28;20080;-79
2024/01/04 09:09:34;;;;;;;5.75;1.50;;;4.10;99.90;;;;;;5056030;28;20041;-79
2024/01/04 09:12:00;;;;;;;3.65;1.20;;;4.10;99.90;;;;;;5060073;28;20032;-79
2024/01/04 09:14:26;;;;;;;2.55;1.08;;;4.10;99.90;;;;;;5059813;28;20170;-79
2024/01/04 09:16:51;;;;;;;5.22;1.13;;;4.20;99.90;;;;;;5063251;28;20040;-80
2024/01/04 09:19:19;;;;;;;7.65;1.63;;;4.40;99.90;;;;;;5060296;28;20741;-79
2024/01/04 09:21:47;;;;;;;2.53;1.02;;;4.20;99.90;;;;;;5058016;28;20585;-79
2024/01/04 09:24:13;;;;;;;2.58;0.82;;;4.20;99.90;;;;;;5069402;28;20059;-79
2024/01/04 09:26:43;;;;;;;8.73;1.30;;;4.30;99.90;;;;;;5055080;28;20048;-79
2024/01/04 09:29:09;;;;;;;4.15;1.50;;;4.30;99.90;;;;;;5071191;28;20048;-79
2024/01/04 09:31:36;;;;;;;5.05;1.10;;;4.30;99.90;;;;;;5071387;28;20044;-80
2024/01/04 09:34:02;;;;;;;4.47;1.50;;;4.60;99.90;;;;;;5062043;28;20057;-78
2024/01/04 09:36:27;;;;;;;3.95;1.17;;;4.40;99.90;;;;;;5072518;28;20058;-78
2024/01/04 09:38:54;;;;;;;5.70;1.25;;;4.60;99.90;;;;;;5065966;28;20619;-79
2024/01/04 09:41:27;;;;;;;4.97;1.08;;;4.50;99.90;;;;;;5066297;28;20059;-78
2024/01/04 09:43:57;;;;;;;7.85;2.88;;;4.50;99.90;;;;;;5063852;28;20044;-79
2024/01/04 09:46:25;;;;;;;6.28;1.90;;;4.50;99.90;;;;;;5057885;28;20471;-78
2024/01/04 09:49:00;;;;;;;5.05;2.17;;;4.60;99.90;;;;;;5063769;28;20037;-78
2024/01/04 09:51:37;;;;;;;5.25;1.33;;;4.60;99.90;;;;;;5061333;28;20045;-78
2024/01/04 09:54:08;;;;;;;4.35;0.90;;;4.60;99.90;;;;;;5061322;28;20041;-78
2024/01/04 09:56:46;;;;;;;6.03;1.02;;;4.60;99.90;;;;;;5060668;28;20564;-78
2024/01/04 09:59:12;;;;;;;5.00;1.38;;;4.50;99.90;;;;;;5062446;28;20050;-78
2024/01/04 10:01:38;;;;;;;4.15;1.40;;;4.50;99.90;;;;;;5062860;28;20876;-78
2024/01/04 10:04:12;;;;;;;4.93;1.17;;;4.50;99.90;;;;;;5066437;28;20106;-78
2024/01/04 10:06:43;;;;;;;5.65;0.93;;;4.50;99.90;;;;;;5070262;28;20067;-78
2024/01/04 10:09:38;;;;;;;2.88;0.85;;;4.40;99.90;;;;;;5059848;28;20055;-78
2024/01/04 10:12:13;;;;;;;5.03;1.00;;;4.50;99.90;;;;;;5061917;28;20047;-80
2024/01/04 10:14:38;;;;;;;3.65;1.02;;;4.40;99.90;;;;;;5061052;28;20037;-79
2024/01/04 10:17:04;;;;;;;3.70;0.75;;;4.40;99.90;;;;;;5065376;28;20381;-80
2024/01/04 10:19:31;;;;;;;3.30;1.10;;;4.40;99.90;;;;;;5057527;28;20051;-80
2024/01/04 10:22:02;;;;;;;2.13;0.73;;;4.40;99.90;;;;;;5056143;28;20049;-79
2024/01/04 10:24:32;;;;;;;7.18;1.65;;;4.60;99.90;;;;;;5056277;28;20132;-79
2024/01/04 10:26:59;;;;;;;9.77;1.35;;;4.40;99.90;;;;;;5059147;28;20056;-80
2024/01/04 10:29:30;;;;;;;5.07;1.48;;;4.50;99.90;;;;;;5059325;28;20041;-80
2024/01/04 10:31:59;;;;;;;6.38;1.35;;;4.50;99.90;;;;;;5054194;28;20041;-82
2024/01/04 10:34:26;;;;;;;5.25;0.93;;;4.50;99.90;;;;;;5055604;28;20064;-81
2024/01/04 10:36:52;;;;;;;4.38;1.65;;;4.50;99.90;;;;;;5065450;28;20044;-76
2024/01/04 10:39:20;;;;;;;4.72;1.40;;;4.50;99.90;;;;;;5068680;28;20760;-79
2024/01/04 10:41:56;;;;;;;5.05;1.50;;;4.50;99.90;;;;;;5055809;28;20161;-79
2024/01/04 10:44:22;;;;;;;3.72;1.00;;;4.60;99.90;;;;;;5057763;28;20052;-79
2024/01/04 10:46:54;;;;;;;4.70;1.10;;;4.60;99.90;;;;;;5060854;28;20041;-80
2024/01/04 10:49:21;;;;;;;3.92;0.90;;;4.60;99.90;;;;;;5069378;28;20399;-81
2024/01/04 10:51:49;;;;;;;4.13;1.00;;;4.60;99.90;;;;;;5071158;28;20128;-82
2024/01/04 10:54:15;;;;;;;2.97;1.10;;;4.70;99.90;;;;;;5071177;28;20044;-82
2024/01/04 10:56:41;;;;;;;4.50;1.35;;;4.70;99.90;;;;;;5071334;28;20059;-82
2024/01/04 10:59:08;;;;;;;4.13;0.73;;;4.80;99.90;;;;;;5074727;28;20040;-78
2024/01/04 11:01:34;;;;;;;3.28;0.93;;;4.80;99.90;;;;;;5069541;28;20044;-78
2024/01/04 11:04:00;;;;;;;4.82;0.90;;;4.90;99.90;;;;;;5063881;28;20079;-78
2024/01/04 11:06:27;;;;;;;1.98;0.50;;;4.90;99.90;;;;;;5072374;28;20488;-78
2024/01/04 11:08:57;;;;;;;2.08;0.60;;;4.90;99.90;;;;;;5069857;28;20045;-78
2024/01/04 11:11:27;;;;;;;4.03;0.75;;;4.90;99.90;;;;;;5070622;28;20094;-78
2024/01/04 11:13:53;;;;;;;1.83;0.60;;;5.00;99.90;;;;;;5071397;28;20052;-78
2024/01/04 11:16:33;;;;;;;2.83;0.52;;;5.00;99.90;;;;;;5071475;28;20052;-78
2024/01/04 11:19:35;;;;;;;4.03;0.60;;;5.00;99.90;;;;;;5071803;28;20041;-78
2024/01/04 11:22:34;;;;;;;3.47;0.70;;;5.10;99.90;;;;;;5072115;28;20048;-78
2024/01/04 11:25:47;;;;;;;5.28;0.68;;;5.20;99.90;;;;;;5072200;28;20473;-78
2024/01/04 11:28:13;;;;;;;6.32;0.60;;;5.30;99.90;;;;;;5071724;28;20573;-78
2024/01/04 11:30:39;;;;;;;4.38;0.60;;;5.30;99.90;;;;;;5071595;28;20134;-78
2024/01/04 11:33:05;;;;;;;5.05;0.90;;;5.30;99.90;;;;;;5072888;28;20078;-78
2024/01/04 11:35:36;;;;;;;3.20;0.68;;;5.30;99.90;;;;;;5074088;28;20075;-78
2024/01/04 11:38:08;;;;;;;2.38;0.52;;;5.30;99.90;;;;;;5073993;28;20048;-79
2024/01/04 11:40:37;;;;;;;2.50;0.50;;;5.30;99.90;;;;;;5074715;28;20515;-78
2024/01/04 11:43:16;;;;;;;4.43;0.73;;;5.30;99.90;;;;;;5073359;28;20416;-78
2024/01/04 11:45:45;;;;;;;3.17;0.63;;;5.30;99.90;;;;;;5073745;28;20119;-78
2024/01/04 11:48:12;;;;;;;2.75;0.70;;;5.40;99.90;;;;;;5073484;28;20488;-78
2024/01/04 11:50:48;;;;;;;1.58;0.60;;;5.40;99.90;;;;;;5073848;28;20183;-78
2024/01/04 11:53:15;;;;;;;1.88;0.50;;;5.40;99.90;;;;;;5073714;28;20052;-78
2024/01/04 11:55:41;;;;;;;2.22;0.40;;;5.50;99.90;;;;;;5073388;28;20075;-78
2024/01/04 11:58:28;;;;;;;2.85;0.60;;;5.50;99.90;;;;;;5073299;28;20049;-78
2024/01/04 12:00:56;;;;;;;3.33;0.60;;;5.70;99.90;;;;;;5073306;28;20044;-78
2024/01/04 12:03:26;;;;;;;1.35;0.40;;;5.60;99.90;;;;;;5072976;28;20415;-78
2024/01/04 12:05:54;;;;;;;2.35;0.50;;;5.60;99.90;;;;;;5073405;28;20131;-78
2024/01/04 12:08:30;;;;;;;1.23;0.50;;;5.60;99.90;;;;;;5073255;28;20040;-78
2024/01/04 12:11:07;;;;;;;3.55;0.63;;;5.60;99.90;;;;;;5073101;28;20127;-79
2024/01/04 12:13:33;;;;;;;5.65;0.60;;;5.60;99.90;;;;;;5073429;28;20048;-78
2024/01/04 12:15:59;;;;;;;3.47;0.70;;;5.60;99.90;;;;;;5073147;28;20063;-79
2024/01/04 12:18:24;;;;;;;1.13;0.60;;;5.60;99.90;;;;;;5073265;28;20056;-78
2024/01/04 12:20:50;;;;;;;1.95;0.50;;;5.60;99.90;;;;;;5072386;28;20057;-78
2024/01/04 12:23:16;;;;;;;3.22;0.50;;;5.70;99.90;;;;;;5072843;28;20408;-78
2024/01/04 12:25:42;;;;;;;4.00;0.57;;;5.60;99.90;;;;;;5072949;28;20123;-78
2024/01/04 12:28:09;;;;;;;3.28;0.60;;;5.60;99.90;;;;;;5073123;28;20056;-78
2024/01/04 12:30:39;;;;;;;2.05;0.63;;;5.70;99.90;;;;;;5073006;28;20086;-79
2024/01/04 12:33:06;;;;;;;4.65;0.70;;;5.50;99.90;;;;;;5073008;28;20052;-78
2024/01/04 12:35:32;;;;;;;4.57;0.57;;;5.50;99.90;;;;;;5072654;28;20045;-78
2024/01/04 12:38:04;;;;;;;3.97;0.75;;;5.60;99.90;;;;;;5073010;28;20453;-78
2024/01/04 12:40:45;;;;;;;3.10;0.82;;;5.60;99.90;;;;;;5056215;28;20044;-78
2024/01/04 12:43:17;;;;;;;2.72;0.70;;;5.60;99.90;;;;;;5072489;28;20056;-78
2024/01/04 12:45:43;;;;;;;3.60;0.63;;;5.60;99.90;;;;;;5072410;28;20492;-78
2024/01/04 12:48:09;;;;;;;4.07;0.60;;;5.60;99.90;;;;;;5072669;28;20055;-78
2024/01/04 12:50:35;;;;;;;3.08;0.60;;;5.60;99.90;;;;;;5072258;28;20052;-78
2024/01/04 12:53:01;;;;;;;3.42;0.52;;;5.60;99.90;;;;;;5072228;28;20124;-78
2024/01/04 12:55:27;;;;;;;4.07;0.60;;;5.60;99.90;;;;;;5072237;28;20052;-78
2024/01/04 12:57:54;;;;;;;3.70;0.60;;;5.60;99.90;;;;;;5072511;28;20094;-79